avr
08

MX LIVE – GP DE VALKENSWAARD : LES RÉSULTATS DES QUALIFICATIONS


More Motocross Videos

MX1 – Free Practice – Classification
Pos Nr Rider Nat. Fed. Bike Bestlaptime in lap Diff. First Diff. Prev. Tot. Laps Speed
1 183 Frossard, Steven FRA FFM Yamaha 1:50.423 13 0:00.000 0:00.000 13 48.903
2 19 Philippaerts, David ITA FMI Yamaha 1:50.678 7 0:00.255 0:00.255 9 48.79
3 131 Aubin, Nicolas FRA FFM Honda 1:50.981 7 0:00.558 0:00.303 12 48.657
4 222 Cairoli, Antonio ITA FMI KTM 1:51.060 12 0:00.637 0:00.079 12 48.622
5 21 Paulin, Gautier FRA FFM Kawasaki 1:51.187 7 0:00.764 0:00.127 11 48.567
6 4 Leok, Tanel EST EMF Suzuki 1:51.219 13 0:00.796 0:00.032 13 48.553
7 121 Boog, Xavier FRA FFM Kawasaki 1:51.329 7 0:00.906 0:00.110 11 48.505
8 22 Strijbos, Kevin BEL FMB KTM 1:51.661 7 0:01.238 0:00.332 12 48.361
9 30 Aranda, Gregory FRA FFM Yamaha 1:51.717 10 0:01.294 0:00.056 10 48.336
10 777 Bobryshev, Evgeny RUS MFR Honda 1:51.954 7 0:01.531 0:00.237 9 48.234
11 25 Desalle, Clement BEL FMB Suzuki 1:51.965 6 0:01.542 0:00.011 13 48.229
12 24 Simpson, Shaun GBR ACU Yamaha 1:52.503 8 0:02.080 0:00.538 10 47.999
13 999 Goncalves, Rui POR FMP Honda 1:52.765 9 0:02.342 0:00.262 12 47.887
14 377 Pourcel, Christophe FRA FFM Kawasaki 1:52.777 9 0:02.354 0:00.012 9 47.882
15 9 de Dycker, Ken BEL FMB KTM 1:52.929 5 0:02.506 0:00.152 10 47.818
16 50 Barr, Martin IRL ACU Kawasaki 1:53.321 9 0:02.898 0:00.392 12 47.652
17 61 Brakke, Herjan NED KNMV Yamaha 1:53.522 7 0:03.099 0:00.201 13 47.568
18 287 Schiffer, Marcus GER DMSB Suzuki 1:53.552 11 0:03.129 0:00.030 12 47.555
19 91 Karro, Matiss LAT LAMSF KTM 1:53.593 6 0:03.170 0:00.041 12 47.538
20 55 Kras, Mike NED KNMV Suzuki 1:53.910 7 0:03.487 0:00.317 13 47.406
21 120 Soubeyras, Cedric FRA FFM Honda 1:54.032 11 0:03.609 0:00.122 12 47.355
22 7 Barragan, Jonathan ESP RFME Honda 1:54.356 8 0:03.933 0:00.324 12 47.221
23 37 Krestinov, Gert EST EMF Honda 1:54.394 6 0:03.971 0:00.038 12 47.205
24 215 Lynggaard, Kasper DEN DMU Kawasaki 1:54.443 2 0:04.020 0:00.049 8 47.185
25 39 Guarneri, Davide ITA FMI KTM 1:54.469 9 0:04.046 0:00.026 12 47.174
26 212 de Reuver, Mark NED KNMV Kawasaki 1:54.710 10 0:04.287 0:00.241 13 47.075
27 42 Parker, Nathan GBR ACU KTM 1:55.026 9 0:04.603 0:00.316 12 46.946
28 36 Bonini, Matteo ITA FMI KTM 1:55.141 9 0:04.718 0:00.115 13 46.899
29 32 Potisek, Milko FRA FFM Honda 1:55.200 7 0:04.777 0:00.059 12 46.875
30 10 Boissiere, Anthony FRA FFM TM 1:55.254 6 0:04.831 0:00.054 11 46.853
31 95 Justs, Augusts LAT LAMSF Honda 1:55.258 6 0:04.835 0:00.004 10 46.851
32 11 Pourcel, Sebastien FRA FFM Kawasaki 1:55.414 7 0:04.991 0:00.156 9 46.788
33 41 Smith, Alfie GBR ACU Yamaha 1:56.635 6 0:06.212 0:01.221 12 46.298
34 67 Tiainen, Santtu FIN SML Kawasaki 1:57.195 10 0:06.772 0:00.560 12 46.077
35 300 Koskela, Niko FIN SML Kawasaki 1:57.346 4 0:06.923 0:00.151 13 46.018
36 79 Oldekamp, Lars GER DMSB KTM 1:58.161 12 0:07.738 0:00.815 13 45.7
37 171 Bertuzzo, Pier Filippo ITA FMI Honda 1:58.405 5 0:07.982 0:00.244 12 45.606
38 74 Steinbergs, Ivo LAT LAMSF Kawasaki 1:59.600 7 0:09.177 0:01.195 11 45.151
39 611 Cociu, Mihail MOL FMI KTM 2:00.754 11 0:10.331 0:01.154 11 44.719
40 99 Teko, Kristers LAT LAMSF Honda 2:04.472 8 0:14.049 0:03.718 14 43.383

MX1 – Pre-Qualifying Practice
Pos Nr Rider Nation Bike Bestlaptime in lap Diff. First Diff. Prev. Tot. Laps Lastlaptime Lastlap-2 Lastlap-3

- 1 777 Bobryshev, Evgeny RUS Honda 1:49.396 4 0:00.000 0:00.000 7 1:49.433 2:19.020 2:15.138
- 2 183 Frossard, Steven FRA Yamaha 1:50.875 4 0:01.479 0:01.479 8 2:39.610 2:06.389 12:37.466
- 3 222 Cairoli, Antonio ITA KTM 1:50.980 7 0:01.584 0:00.105 12 1:51.504 1:59.949 1:53.060
- 4 4 Leok, Tanel EST Suzuki 1:50.982 7 0:01.586 0:00.002 11 1:52.169 2:23.523 2:37.056
- 5 25 Desalle, Clement BEL Suzuki 1:51.156 6 0:01.760 0:00.174 10 2:19.934 2:14.432 2:05.311
- 6 21 Paulin, Gautier FRA Kawasaki 1:51.185 3 0:01.789 0:00.029 8 1:53.597 5:21.880 2:03.929
- 7 24 Simpson, Shaun GBR Yamaha 1:51.360 6 0:01.964 0:00.175 11 2:24.949 2:48.646 1:54.245
- 8 19 Philippaerts, David ITA Yamaha 1:51.416 11 0:02.020 0:00.056 11 1:51.416 5:06.774 1:52.997
- 9 9 de Dycker, Ken BEL KTM 1:51.786 2 0:02.390 0:00.370 9 2:56.164 1:51.820 2:39.043
- 10 121 Boog, Xavier FRA Kawasaki 1:51.885 6 0:02.489 0:00.099 12 2:19.697 1:52.682 2:17.637
- 11 22 Strijbos, Kevin BEL KTM 1:52.137 4 0:02.741 0:00.252 10 1:53.605 2:40.868 1:54.061
- 12 999 Goncalves, Rui POR Honda 1:52.706 3 0:03.310 0:00.569 10 2:52.278 1:53.286 2:45.339
- 13 377 Pourcel, Christophe FRA Kawasaki 1:52.748 3 0:03.352 0:00.042 9 2:07.911 2:34.237 2:45.816
- 14 39 Guarneri, Davide ITA KTM 1:52.766 10 0:03.370 0:00.018 10 1:52.766 2:51.471 1:53.071
- 15 287 Schiffer, Marcus GER Suzuki 1:52.849 9 0:03.453 0:00.083 11 3:57.676 2:37.382 1:52.849
- 16 30 Aranda, Gregory FRA Yamaha 1:52.982 9 0:03.586 0:00.133 9 1:52.982 4:45.958 1:53.869
- 17 131 Aubin, Nicolas FRA Honda 1:53.392 3 0:03.996 0:00.410 10 2:07.322 2:44.086 5:56.924
- 18 120 Soubeyras, Cedric FRA Honda 1:53.447 5 0:04.051 0:00.055 11 2:46.380 1:53.752 3:57.204
- 19 91 Karro, Matiss LAT KTM 1:53.451 10 0:04.055 0:00.004 11 2:52.204 1:53.451 2:25.043
- 20 61 Brakke, Herjan NED Yamaha 1:53.601 8 0:04.205 0:00.150 10 2:38.238 6:54.182 1:53.601
- 21 11 Pourcel, Sebastien FRA Kawasaki 1:53.744 9 0:04.348 0:00.143 10 2:40.815 1:53.744 6:48.019
- 22 7 Barragan, Jonathan ESP Honda 1:53.806 4 0:04.410 0:00.062 11 2:02.351 2:10.721 5:29.547
- 23 55 Kras, Mike NED Suzuki 1:54.908 4 0:05.512 0:01.102 11 1:56.519 2:28.193 2:34.441
- 24 32 Potisek, Milko FRA Honda 1:54.917 10 0:05.521 0:00.009 11 2:24.282 1:54.917 2:52.745
- 25 50 Barr, Martin IRL Kawasaki 1:55.158 5 0:05.762 0:00.241 11 2:40.465 1:55.784 4:36.188
- 26 37 Krestinov, Gert EST Honda 1:55.615 4 0:06.219 0:00.457 12 1:56.829 2:07.989 3:40.132
- 27 36 Bonini, Matteo ITA KTM 1:55.890 4 0:06.494 0:00.275 12 2:15.282 2:20.732 2:33.327
- 28 67 Tiainen, Santtu FIN Kawasaki 1:56.381 4 0:06.985 0:00.491 13 1:58.693 3:24.850 2:09.840
- 29 300 Koskela, Niko FIN Kawasaki 1:56.493 4 0:07.097 0:00.112 11 2:49.023 2:21.949 1:57.980
- 30 42 Parker, Nathan GBR KTM 1:56.606 7 0:07.210 0:00.113 10 1:57.996 4:50.053 1:57.216
- 31 95 Justs, Augusts LAT Honda 1:56.935 1 0:07.539 0:00.329 7 4:07.804 2:00.216 12:06.024
- 32 74 Steinbergs, Ivo LAT Kawasaki 1:56.961 1 0:07.565 0:00.026 8 2:25.741 5:16.154 2:14.770
- 33 99 Teko, Kristers LAT Honda 1:57.050 4 0:07.654 0:00.089 11 4:15.363 1:58.873 2:51.811
- 34 10 Boissiere, Anthony FRA TM 1:57.176 5 0:07.780 0:00.126 10 4:18.283 1:59.978 2:06.298
- 35 215 Lynggaard, Kasper DEN Kawasaki 1:57.840 9 0:08.444 0:00.664 11 1:59.880 2:43.933 1:57.840
- 36 41 Smith, Alfie GBR Yamaha 1:58.248 5 0:08.852 0:00.408 12 1:58.841 2:22.912 1:58.720
- 37 79 Oldekamp, Lars GER KTM 1:58.479 4 0:09.083 0:00.231 11 2:40.511 2:00.441 1:58.614
- 38 171 Bertuzzo, Pier Filippo ITA Honda 2:00.475 7 0:11.079 0:01.996 11 2:50.791 2:54.391 2:02.044
- 39 611 Cociu, Mihail MOL KTM 2:01.193 4 0:11.797 0:00.718 11 2:02.629 2:40.782 2:01.364

MX1 – Qualifying Race
Pos Nr Rider Nation Bike Time laps Diff. First Diff. Prev. Bestlaptime in lap Lastlaptime Lastlap-2 Lastlap-3

- 1 222 Cairoli, Antonio ITA KTM 25:04.092 12 0:00.000 0:00.000 1:53.473 2 2:00.684 1:57.416 1:57.057
- 2 25 Desalle, Clement BEL Suzuki 25:12.260 12 0:08.168 0:08.168 1:54.544 4 2:01.290 1:57.262 1:57.795
- 3 183 Frossard, Steven FRA Yamaha 25:12.776 12 0:08.684 0:00.516 1:55.096 1 2:00.135 1:57.016 1:59.828
- 4 19 Philippaerts, David ITA Yamaha 25:16.437 12 0:12.345 0:03.661 1:55.283 2 2:00.345 1:56.178 1:55.736
- 5 22 Strijbos, Kevin BEL KTM 25:17.712 12 0:13.620 0:01.275 1:55.107 1 1:58.422 1:58.119 1:58.944
- 6 9 de Dycker, Ken BEL KTM 25:20.746 12 0:16.654 0:03.034 1:55.007 2 1:57.730 1:56.804 1:56.353
- 7 21 Paulin, Gautier FRA Kawasaki 25:21.166 12 0:17.074 0:00.420 1:55.709 5 1:56.652 1:56.073 1:57.189
- 8 4 Leok, Tanel EST Suzuki 25:27.350 12 0:23.258 0:06.184 1:55.365 2 2:00.710 1:55.878 1:57.335
- 9 121 Boog, Xavier FRA Kawasaki 25:45.503 12 0:41.411 0:18.153 1:57.472 2 2:00.880 2:00.978 1:59.668
- 10 999 Goncalves, Rui POR Honda 25:47.753 12 0:43.661 0:02.250 1:57.184 2 1:57.614 1:58.676 2:00.464
- 11 39 Guarneri, Davide ITA KTM 25:56.606 12 0:52.514 0:08.853 1:57.514 2 2:02.043 2:03.798 2:00.786
- 12 287 Schiffer, Marcus GER Suzuki 25:58.941 12 0:54.849 0:02.335 1:58.810 5 1:59.903 2:00.470 2:00.835
- 13 24 Simpson, Shaun GBR Yamaha 26:01.385 12 0:57.293 0:02.444 1:57.286 8 2:00.406 1:57.937 2:00.339
- 14 61 Brakke, Herjan NED Yamaha 26:14.185 12 1:10.093 0:12.800 1:59.073 2 2:04.801 2:03.076 2:01.801
- 15 36 Bonini, Matteo ITA KTM 26:18.345 12 1:14.253 0:04.160 1:59.451 5 2:01.791 2:01.346 2:00.779
- 16 377 Pourcel, Christophe FRA Kawasaki 26:18.505 12 1:14.413 0:00.160 1:58.919 5 2:02.670 2:01.556 2:02.408
- 17 37 Krestinov, Gert EST Honda 26:20.767 12 1:16.675 0:02.262 1:59.742 6 2:02.333 2:00.639 2:00.020
- 18 32 Potisek, Milko FRA Honda 26:30.656 12 1:26.564 0:09.889 1:59.580 8 2:07.075 2:02.440 2:02.535
- 19 11 Pourcel, Sebastien FRA Kawasaki 26:34.366 12 1:30.274 0:03.710 1:59.551 5 2:01.496 2:02.747 2:01.774
- 20 7 Barragan, Jonathan ESP Honda 26:35.703 12 1:31.611 0:01.337 2:00.108 4 2:01.713 2:01.801 2:02.318
- 21 79 Oldekamp, Lars GER KTM 26:37.005 12 1:32.913 0:01.302 2:00.811 5 2:05.448 2:03.930 2:02.612
- 22 120 Soubeyras, Cedric FRA Honda 26:47.245 12 1:43.153 0:10.240 1:59.567 2 2:06.666 2:03.900 2:03.528
23 10 Boissiere, Anthony FRA TM 26:49.888 12 1:45.796 0:02.643 2:01.558 7 2:03.061 2:03.117 2:02.565
24 131 Aubin, Nicolas FRA Honda 26:51.575 12 1:47.483 0:01.687 2:01.245 5 2:06.227 2:04.654 2:01.700
- 25 215 Lynggaard, Kasper DEN Kawasaki 26:58.021 12 1:53.929 0:06.446 2:02.132 5 2:05.308 2:04.474 2:05.363
- 26 67 Tiainen, Santtu FIN Kawasaki 26:59.159 12 1:55.067 0:01.138 2:01.839 8 2:04.127 2:04.791 2:03.263
- 27 50 Barr, Martin IRL Kawasaki 27:00.439 12 1:56.347 0:01.280 2:01.122 4 2:03.266 2:04.361 2:03.289
- 28 41 Smith, Alfie GBR Yamaha 27:06.740 12 2:02.648 0:06.301 2:02.744 5 2:05.489 2:03.254 2:04.414
- 29 95 Justs, Augusts LAT Honda 25:04.975 11 -1 lap -1 lap 2:03.115 2 2:06.334 2:04.255 2:04.337
- 30 42 Parker, Nathan GBR KTM 25:06.386 11 -1 lap 0:01.411 2:00.247 2 2:04.920 2:04.366 2:05.072
- 31 55 Kras, Mike NED Suzuki 25:07.088 11 -1 lap 0:00.702 2:03.850 7 2:04.535 2:04.058 2:04.622
- 32 99 Teko, Kristers LAT Honda 25:09.449 11 -1 lap 0:02.361 2:02.536 4 2:08.615 2:07.666 2:06.374
- 33 300 Koskela, Niko FIN Kawasaki 25:15.168 11 -1 lap 0:05.719 1:59.286 3 2:05.590 2:02.668 2:05.565
- 34 74 Steinbergs, Ivo LAT Kawasaki 25:17.358 11 -1 lap 0:02.190 2:02.887 5 2:10.178 2:06.947 2:07.082
- 35 171 Bertuzzo, Pier Filippo ITA Honda 26:38.676 11 -1 lap 1:21.318 2:04.294 7 2:34.511 2:23.932 2:14.620
- 36 611 Cociu, Mihail MOL KTM 26:50.805 11 -1 lap 0:12.129 2:06.702 3 2:13.155 2:13.680 2:15.105
- 37 91 Karro, Matiss LAT KTM 4:07.521 1 -11 laps -10 laps 2:02.799 1 2:02.799 0:00.000 0:00.000
- 38 30 Aranda, Gregory FRA Yamaha 4:52.077 1 -11 laps 0:44.556 2:40.589 1 2:40.589 0:00.000 0:00.000
- 39 777 Bobryshev, Evgeny RUS Honda 1:59.892 0 -12 laps -1 lap 0:00.000 0 0:00.000 0:00.000 0:00.000
Best lap: #222 Antonio Cairoli Time:1:53.473 in lap 2

MX2 – Free Practice – Classification
Pos Nr Rider Nat. Fed. Bike Bestlaptime in lap Diff. First Diff. Prev. Tot. Laps Speed

1 84 Herlings, Jeffrey NED KNMV KTM 1:48.562 7 0:00.000 0:00.000 12 49.741
2 100 Searle, Tommy GBR ACU Kawasaki 1:49.730 5 0:01.168 0:01.168 13 49.212
3 89 van Horebeek, Jeremy BEL FMB KTM 1:50.495 9 0:01.933 0:00.765 11 48.871
4 66 Tonkov, Alexander RUS MFR Honda 1:51.086 11 0:02.524 0:00.591 13 48.611
5 34 Roelants, Joel BEL FMB Kawasaki 1:51.314 2 0:02.752 0:00.228 9 48.511
6 911 Tixier, Jordi FRA FFM KTM 1:51.696 10 0:03.134 0:00.382 15 48.346
7 152 Petrov, Petar BUL BMF Suzuki 1:51.843 10 0:03.281 0:00.147 13 48.282
8 25 Coldenhoff, Glenn NED KNMV KTM 1:51.987 5 0:03.425 0:00.144 10 48.22
9 151 Kullas, Harri FIN SML Suzuki 1:52.062 11 0:03.500 0:00.075 14 48.188
10 77 Lupino, Alessandro ITA FMI Husqvarna 1:52.410 7 0:03.848 0:00.348 12 48.038
11 44 Banks-Browne, Elliott GBR ACU KTM 1:52.728 10 0:04.166 0:00.318 12 47.903
12 6 Anstie, Max GBR AMA Honda 1:52.809 11 0:04.247 0:00.081 12 47.869
13 33 Lieber, Julien BEL FMB KTM 1:52.934 13 0:04.372 0:00.125 13 47.816
14 45 Nicholls, Jake GBR ACU KTM 1:53.503 6 0:04.941 0:00.569 10 47.576
15 37 Teillet, Valentin FRA FFM Kawasaki 1:53.617 10 0:05.055 0:00.114 12 47.528
16 112 Heibye, Even NOR NMF KTM 1:53.760 9 0:05.198 0:00.143 15 47.468
17 119 Pocock, Mel GBR ACU Yamaha 1:53.879 9 0:05.317 0:00.119 9 47.419
18 22 Ferrandis, Dylan FRA FFM Kawasaki 1:54.152 6 0:05.590 0:00.273 11 47.305
19 17 Butron, Jose ESP RFME KTM 1:54.173 9 0:05.611 0:00.021 12 47.297
20 141 Cervellin, Andrea ITA FMI TM 1:54.305 8 0:05.743 0:00.132 11 47.242
21 461 Febvre, Romain FRA FFM KTM 1:54.312 9 0:05.750 0:00.007 13 47.239
22 221 Rätsep, Priit EST EMF KTM 1:54.424 8 0:05.862 0:00.112 12 47.193
23 195 Justs, Roberts LAT LAMSF Honda 1:54.730 9 0:06.168 0:00.306 14 47.067
24 103 Vandeuren, Kenny BEL FMB Yamaha 1:54.935 9 0:06.373 0:00.205 13 46.983
25 51 Getteman, Jens BEL FMB Suzuki 1:55.142 11 0:06.580 0:00.207 12 46.899
26 173 Guillod, Valentin SUI FMS KTM 1:55.159 5 0:06.597 0:00.017 13 46.892
27 18 De Waal, Micha – Boy NED KNMV Suzuki 1:55.270 5 0:06.708 0:00.111 14 46.847
28 922 Fors, Kevin BEL FMB Yamaha 1:55.374 6 0:06.812 0:00.104 11 46.804
29 249 Larsen, Nikolaj DEN DMU Suzuki 1:55.493 6 0:06.931 0:00.119 9 46.756
30 202 Larrieu, Loic FRA FFM Husaberg 1:55.637 8 0:07.075 0:00.144 12 46.698
31 262 Del Segato, Giacomo ITA FMI KTM 1:55.700 7 0:07.138 0:00.063 11 46.672
32 600 Davis, Ivanovs LAT LAMSF Kawasaki 1:55.810 5 0:07.248 0:00.110 12 46.628
33 35 Rauchenecker, Pascal AUT OeAMTC KTM 1:55.918 7 0:07.356 0:00.108 12 46.585
34 300 Golovkin, Viacheslav RUS LAMSF Kawasaki 1:56.374 5 0:07.812 0:00.456 13 46.402
35 114 Booker, Jordan GBR ACU Honda 1:56.464 13 0:07.902 0:00.090 14 46.366
36 128 Monticelli, Ivo ITA FMI Suzuki 1:56.516 6 0:07.954 0:00.052 13 46.346
37 837 Battig, Alessandro ITA FMI Yamaha 1:56.994 13 0:08.432 0:00.478 13 46.156
38 50 Mitchell, Sean Rowen ZIM ZMSF KTM 1:57.297 5 0:08.735 0:00.303 13 46.037
39 264 Bengtsson, Filip SWE SVEMO KTM 1:57.705 4 0:09.143 0:00.408 12 45.877
40 101 Zeni, Samuel ITA FMI Yamaha 1:57.908 7 0:09.346 0:00.203 12 45.798

MX2 – Pre-Qualifying Practice
Pos Nr Rider Nation Bike Bestlaptime in lap Diff. First Diff. Prev. Tot. Laps Lastlaptime Lastlap-2 Lastlap-3

- 1 84 Herlings, Jeffrey NED KTM 1:49.747 1 0:00.000 0:00.000 10 2:32.528 2:26.770 2:40.764
- 2 100 Searle, Tommy GBR Kawasaki 1:51.467 5 0:01.720 0:01.720 12 1:56.443 2:04.197 1:55.218
- 3 34 Roelants, Joel BEL Kawasaki 1:51.554 4 0:01.807 0:00.087 13 1:52.197 2:05.079 2:04.012
- 4 89 van Horebeek, Jeremy BEL KTM 1:51.621 7 0:01.874 0:00.067 9 1:53.529 3:47.950 1:51.621
- 5 6 Anstie, Max GBR Honda 1:52.318 2 0:02.571 0:00.697 13 2:28.927 1:54.534 5:09.564
- 6 45 Nicholls, Jake GBR KTM 1:52.590 5 0:02.843 0:00.272 12 6:48.049 2:33.935 1:54.121
- 7 911 Tixier, Jordi FRA KTM 1:52.744 10 0:02.997 0:00.154 14 2:09.036 2:06.504 2:15.151
- 8 66 Tonkov, Alexander RUS Honda 1:53.305 8 0:03.558 0:00.561 12 1:54.132 2:09.009 2:08.415
- 9 25 Coldenhoff, Glenn NED KTM 1:53.449 3 0:03.702 0:00.144 11 2:19.250 6:20.796 1:54.217
- 10 37 Teillet, Valentin FRA Kawasaki 1:53.504 7 0:03.757 0:00.055 8 6:29.962 1:53.504 2:05.356
- 11 152 Petrov, Petar BUL Suzuki 1:53.690 5 0:03.943 0:00.186 13 1:54.126 2:06.734 2:38.536
- 12 33 Lieber, Julien BEL KTM 1:53.854 7 0:04.107 0:00.164 14 2:19.043 1:57.736 1:58.248
- 13 151 Kullas, Harri FIN Suzuki 1:53.890 8 0:04.143 0:00.036 13 1:54.402 4:20.314 2:27.452
- 14 77 Lupino, Alessandro ITA Husqvarna 1:53.940 6 0:04.193 0:00.050 12 2:18.584 1:54.657 7:09.200
- 15 22 Ferrandis, Dylan FRA Kawasaki 1:54.688 3 0:04.941 0:00.748 10 2:19.524 2:17.351 7:21.451
- 16 17 Butron, Jose ESP KTM 1:54.717 5 0:04.970 0:00.029 13 2:16.919 2:42.311 1:55.797
- 17 922 Fors, Kevin BEL Yamaha 1:55.091 6 0:05.344 0:00.374 8 1:56.346 8:21.650 1:55.091
- 18 249 Larsen, Nikolaj DEN Suzuki 1:55.109 9 0:05.362 0:00.018 12 1:56.392 2:30.664 4:36.312
- 19 119 Pocock, Mel GBR Yamaha 1:55.186 7 0:05.439 0:00.077 10 2:10.703 2:22.247 8:50.955
- 20 44 Banks-Browne, Elliott GBR KTM 1:55.204 3 0:05.457 0:00.018 14 2:47.738 2:30.622 3:01.072
- 21 221 Rätsep, Priit EST KTM 1:55.306 3 0:05.559 0:00.102 12 1:57.872 2:22.534 1:55.714
- 22 35 Rauchenecker, Pascal AUT KTM 1:55.485 3 0:05.738 0:00.179 12 2:18.851 3:57.682 1:55.637
- 23 195 Justs, Roberts LAT Honda 1:55.530 1 0:05.783 0:00.045 11 2:01.979 1:58.653 6:12.601
- 24 173 Guillod, Valentin SUI KTM 1:55.727 2 0:05.980 0:00.197 10 2:57.336 7:31.078 3:10.008
- 25 112 Heibye, Even NOR KTM 1:55.800 9 0:06.053 0:00.073 14 1:58.014 2:17.070 1:58.377
- 26 141 Cervellin, Andrea ITA TM 1:55.834 7 0:06.087 0:00.034 14 1:56.998 2:09.086 2:51.521
- 27 461 Febvre, Romain FRA KTM 1:55.954 7 0:06.207 0:00.120 15 2:21.485 2:17.434 2:09.089
- 28 51 Getteman, Jens BEL Suzuki 1:55.993 4 0:06.246 0:00.039 13 1:57.510 2:19.452 2:54.811
- 29 128 Monticelli, Ivo ITA Suzuki 1:57.078 8 0:07.331 0:01.085 14 1:59.554 2:15.703 2:18.618
- 30 600 Davis, Ivanovs LAT Kawasaki 1:57.306 3 0:07.559 0:00.228 12 2:15.759 5:14.615 2:45.732
- 31 18 De Waal, Micha – Boy NED Suzuki 1:57.342 11 0:07.595 0:00.036 14 2:32.812 1:58.285 3:05.068
- 32 202 Larrieu, Loic FRA Husqvarna 1:57.375 9 0:07.628 0:00.033 11 5:11.294 5:53.480 1:57.375
- 33 103 Vandeuren, Kenny BEL Yamaha 1:57.947 9 0:08.200 0:00.572 11 2:23.798 2:37.127 1:57.947
- 34 262 Del Segato, Giacomo ITA KTM 1:57.973 7 0:08.226 0:00.026 11 1:58.287 2:54.779 1:59.050
- 35 174 Bengtsson, Filip SWE KTM 1:58.022 7 0:08.275 0:00.049 12 1:58.694 3:34.018 1:59.118
- 36 114 Booker, Jordan GBR Honda 1:58.300 5 0:08.553 0:00.278 14 2:00.692 1:58.638 2:46.963
- 37 101 Zeni, Samuel ITA Yamaha 1:59.410 8 0:09.663 0:01.110 10 2:00.781 3:05.064 1:59.410
- 38 300 Golovkin, Viacheslav RUS Kawasaki 2:00.033 7 0:10.286 0:00.623 13 2:00.790 2:00.464 2:46.685
- 39 837 Battig, Alessandro ITA Yamaha 2:00.361 3 0:10.614 0:00.328 13 2:58.511 2:20.853 2:01.168
- 40 50 Mitchell, Sean Rowen ZIM KTM 2:01.431 11 0:11.684 0:01.070 13 2:02.145 4:22.136 2:01.431

MX2 – Qualifying Race
Pos Nr Rider Nation Bike Time laps Diff. First Diff. Prev. Bestlaptime in lap Lastlaptime Lastlap-2 Lastlap-3

- 1 84 Herlings, Jeffrey NED KTM 24:42.751 12 0:00.000 0:00.000 1:51.884 4 1:55.929 1:55.361 1:53.008
- 2 89 van Horebeek, Jeremy BEL KTM 25:07.828 12 0:25.077 0:25.077 1:54.542 1 2:03.161 1:58.456 1:55.738
- 3 100 Searle, Tommy GBR Kawasaki 25:15.944 12 0:33.193 0:08.116 1:54.725 8 1:59.029 1:58.492 1:58.206
- 4 45 Nicholls, Jake GBR KTM 25:20.198 12 0:37.447 0:04.254 1:54.977 3 2:01.868 2:01.028 1:59.476
- 5 17 Butron, Jose ESP KTM 25:30.025 12 0:47.274 0:09.827 1:56.646 1 1:58.586 1:59.363 1:58.560
- 6 6 Anstie, Max GBR Honda 25:30.301 12 0:47.550 0:00.276 1:55.419 2 1:58.205 1:58.860 1:57.565
- 7 34 Roelants, Joel BEL Kawasaki 25:31.973 12 0:49.222 0:01.672 1:53.451 8 1:54.638 1:56.659 2:23.774
- 8 37 Teillet, Valentin FRA Kawasaki 25:35.388 12 0:52.637 0:03.415 1:57.593 6 2:00.695 1:58.496 1:58.568
- 9 66 Tonkov, Alexander RUS Honda 25:42.091 12 0:59.340 0:06.703 1:56.400 1 2:01.658 2:00.381 1:59.067
- 10 911 Tixier, Jordi FRA KTM 25:44.464 12 1:01.713 0:02.373 1:57.621 1 2:00.357 2:01.164 2:02.461
- 11 25 Coldenhoff, Glenn NED KTM 25:46.176 12 1:03.425 0:01.712 1:57.048 3 1:59.444 2:01.449 2:00.759
- 12 151 Kullas, Harri FIN Suzuki 25:47.056 12 1:04.305 0:00.880 1:57.522 3 1:59.797 1:59.825 2:00.231
- 13 119 Pocock, Mel GBR Yamaha 26:00.939 12 1:18.188 0:13.883 1:57.527 1 2:03.302 2:00.196 2:01.009
- 14 22 Ferrandis, Dylan FRA Kawasaki 26:03.491 12 1:20.740 0:02.552 1:58.348 5 2:00.411 2:00.822 2:00.485
- 15 461 Febvre, Romain FRA KTM 26:05.994 12 1:23.243 0:02.503 1:58.084 5 2:03.419 2:02.433 2:03.035
- 16 173 Guillod, Valentin SUI KTM 26:06.153 12 1:23.402 0:00.159 1:57.954 3 2:01.474 2:02.985 2:04.656
- 17 249 Larsen, Nikolaj DEN Suzuki 26:08.660 12 1:25.909 0:02.507 1:57.941 1 2:03.061 2:00.902 2:00.751
- 18 33 Lieber, Julien BEL KTM 26:14.765 12 1:32.014 0:06.105 1:57.600 4 2:02.504 2:01.028 2:12.076
- 19 35 Rauchenecker, Pascal AUT KTM 26:31.825 12 1:49.074 0:17.060 1:59.919 6 2:06.051 2:03.140 2:01.732
- 20 114 Booker, Jordan GBR Honda 26:34.843 12 1:52.092 0:03.018 2:00.885 6 2:05.567 2:03.526 2:02.961
- 21 202 Larrieu, Loic FRA Husqvarna 26:41.840 12 1:59.089 0:06.997 2:00.800 10 2:01.459 2:02.129 2:00.800
- 22 195 Justs, Roberts LAT Honda 26:44.267 12 2:01.516 0:02.427 2:01.039 7 2:04.116 2:05.676 2:04.339
- 23 18 De Waal, Micha – Boy NED Suzuki 26:45.013 12 2:02.262 0:00.746 2:01.528 3 2:04.034 2:04.409 2:02.274
- 24 44 Banks-Browne, Elliott GBR KTM 23:53.331 11 -1 lap -1 lap 1:57.567 2 2:02.862 2:01.883 2:01.738
- 25 922 Fors, Kevin BEL Yamaha 24:46.279 11 -1 lap 0:52.948 1:58.637 1 2:05.056 2:03.137 2:03.734
- 26 50 Mitchell, Sean Rowen ZIM KTM 24:50.225 11 -1 lap 0:03.946 2:01.166 4 2:07.110 2:06.106 2:03.403
- 27 77 Lupino, Alessandro ITA Husqvarna 24:52.756 11 -1 lap 0:02.531 2:00.074 3 2:09.130 2:04.886 2:02.354
- 28 600 Davis, Ivanovs LAT Kawasaki 24:53.592 11 -1 lap 0:00.836 2:01.463 4 2:07.148 2:03.837 2:05.678
- 29 174 Bengtsson, Filip SWE KTM 24:58.025 11 -1 lap 0:04.433 2:01.818 2 2:04.566 2:04.757 2:04.822
- 30 300 Golovkin, Viacheslav RUS Kawasaki 25:06.312 11 -1 lap 0:08.287 2:02.564 6 2:07.463 2:05.588 2:06.845
- 31 51 Getteman, Jens BEL Suzuki 25:09.282 11 -1 lap 0:02.970 2:00.589 4 2:06.671 2:02.846 2:05.439
- 32 128 Monticelli, Ivo ITA Suzuki 25:13.185 11 -1 lap 0:03.903 2:01.289 1 2:04.648 2:04.392 2:02.217
- 33 837 Battig, Alessandro ITA Yamaha 25:21.310 11 -1 lap 0:08.125 2:01.682 4 2:08.419 2:04.603 2:04.803
- 34 141 Cervellin, Andrea ITA TM 25:21.891 11 -1 lap 0:00.581 1:58.349 5 2:06.576 2:02.038 2:01.369
- 35 101 Zeni, Samuel ITA Yamaha 25:25.137 11 -1 lap 0:03.246 2:03.062 6 2:05.343 2:08.406 2:08.346
- 36 262 Del Segato, Giacomo ITA KTM 26:04.480 11 -1 lap 0:39.343 2:03.440 3 2:13.479 2:11.549 2:11.704
- 37 112 Heibye, Even NOR KTM 24:57.511 10 -2 laps -1 lap 2:01.532 3 2:04.978 2:06.210 2:04.823
- 38 221 Rätsep, Priit EST KTM 17:56.866 8 -4 laps -2 laps 1:58.293 3 1:59.762 1:59.086 1:59.651
- 39 152 Petrov, Petar BUL Suzuki 16:24.468 7 -5 laps -1 lap 2:00.451 4 2:02.172 2:00.997 2:02.114
- 40 103 Vandeuren, Kenny BEL Yamaha 19:41.436 7 -5 laps 3:16.968 2:00.675 4 2:25.375 2:04.629 2:02.309
Best lap: #84 Jeffrey Herlings Time:1:51.884 in lap 4

WMX – Pre-Qualifying Practice – Classification
Pos Nr Rider Nat. Fed. Bike Bestlaptime in lap Diff. First Diff. Prev. Tot. Laps Speed

1 8 Fontanesi, Chiara ITA FMI Yamaha 2:04.476 5 0:00.000 0:00.000 5 43.382
2 114 Lancelot, Livia FRA FFM Kawasaki 2:05.816 8 0:01.340 0:01.340 9 42.92
3 1 Laier, Stephanie GER DMSB Kawasaki 2:06.017 4 0:01.541 0:00.201 8 42.851
4 149 Veenstra, Marianne NED KNMV KTM 2:11.108 9 0:06.632 0:05.091 10 41.187
5 88 Adriansson, Sandra SWE SVEMO Kawasaki 2:11.313 7 0:06.837 0:00.205 7 41.123
6 151 Klink, Nina NED KNMV KTM 2:11.514 4 0:07.038 0:00.201 5 41.06
7 226 Östlund, Frida SWE SVEMO Honda 2:11.598 4 0:07.122 0:00.084 9 41.034
8 116 Nocera, Francesca ITA FMV KTM 2:11.645 8 0:07.169 0:00.047 10 41.019
9 44 Kane, Natalie GBR MCUI KTM 2:12.385 6 0:07.909 0:00.740 8 40.79
10 141 van Wordragen, Nicky NED KNMV Yamaha 2:12.981 2 0:08.505 0:00.596 5 40.607
11 32 Pettersson, Sara SWE SVEMO KTM 2:13.563 9 0:09.087 0:00.582 9 40.43
12 19 Miller, Joanna POL PZM KTM 2:13.911 10 0:09.435 0:00.348 10 40.325
13 46 van der Wekken, Britt NED KNMV Honda 2:13.928 6 0:09.452 0:00.017 6 40.32
14 193 Braam, Kimberley NED KNMV Kawasaki 2:14.558 8 0:10.082 0:00.630 9 40.131
15 111 Borchers, Anne GER DMSB Suzuki 2:15.789 9 0:11.313 0:01.231 10 39.768
16 266 Rasmussen, Catja DEN DMU Suzuki 2:16.193 10 0:11.717 0:00.404 10 39.65
17 52 Charroux, Justine FRA FFM Yamaha 2:16.923 9 0:12.447 0:00.730 9 39.438
18 130 Joineau, Jessie FRA FFM Yamaha 2:17.017 2 0:12.541 0:00.094 6 39.411
19 34 Dunlop, Alix GBR ACU Honda 2:17.060 8 0:12.584 0:00.043 10 39.399
20 69 Stoutjesdijk, Stephanie NED KNMV KTM 2:17.122 7 0:12.646 0:00.062 9 39.381
21 11 Goodlad, Amie GBR ACU Honda 2:17.302 7 0:12.826 0:00.180 11 39.329
22 73 Pettersen, Marie S. NOR NMF unknown 2:18.168 7 0:13.692 0:00.866 11 39.083
23 21 Irmgartz, Kim GER DMSB Suzuki 2:19.246 4 0:14.770 0:01.078 10 38.78
24 23 Paull, Sophia GBR ACU Honda 2:19.312 3 0:14.836 0:00.066 8 38.762
25 25 Guryeva, Ekaterina RUS MFR Kawasaki 2:20.091 7 0:15.615 0:00.779 8 38.546
26 79 Seisdedos, Gabriela ESP RFME Kawasaki 2:20.324 5 0:15.848 0:00.233 9 38.482
27 36 de Barquin, Morane BEL FMB Honda 2:20.860 9 0:16.384 0:00.536 10 38.336
28 136 Dunlop, Billie GBR ACU Honda 2:21.069 1 0:16.593 0:00.209 11 38.279
29 93 Parrini, Floriana ITA FMI unknown 2:21.609 9 0:17.133 0:00.540 9 38.133
30 98 Schittenhelm, Selina GER DMSB KTM 2:21.657 3 0:17.181 0:00.048 8 38.12
31 18 Germond, Virginie SUI FMS Suzuki 2:21.868 3 0:17.392 0:00.211 5 38.064
32 110 van Oosanen, Kelly NED MUL Yamaha 2:22.139 4 0:17.663 0:00.271 9 37.991
33 100 Lorca, Maria VEN FMV Suzuki 2:22.601 5 0:18.125 0:00.462 8 37.868
34 195 Josta, Samanta LAT LAMSF TM 2:24.677 3 0:20.201 0:02.076 7 37.325
35 292 Fürbacherova, Kristijna CZE SMF Kawasaki 2:27.953 7 0:23.477 0:03.276 7 36.498
36 22 Danz, Vanessa GER DMSB KTM 2:28.947 8 0:24.471 0:00.994 8 36.255
37 95 Virtanen, Ria FIN SML KTM 2:29.010 9 0:24.534 0:00.063 9 36.239
38 51 Marsh, Danni GBR ACU Honda 2:29.708 3 0:25.232 0:00.698 11 36.07
39 82 Corbel, Adeline FRA FFM Yamaha 2:30.763 7 0:26.287 0:01.055 7 35.818
40 20 Lukkari, Jutta FIN SML KTM 2:30.813 10 0:26.337 0:00.050 10 35.806
41 987 Lago, Erica ITA FMI Suzuki 2:33.460 8 0:28.984 0:02.647 9 35.188
42 12 Debelic, Snezana CRO HMS KTM 2:41.475 2 0:36.999 0:08.015 8 33.442

WMX – Race 1 – Classification
Pos Nr Rider Nat. Fed. Bike Time laps Diff. First Diff. Prev. Bestlaptime in lap Speed

1 8 Fontanesi, Chiara ITA FMI Yamaha 26:38.719 11 0:00.000 0:00.000 2:08.573 1 41.999
2 1 Laier, Stephanie GER DMSB Kawasaki 26:44.055 11 0:05.336 0:05.336 2:12.995 4 40.603
3 114 Lancelot, Livia FRA FFM Kawasaki 26:47.918 11 0:09.199 0:03.863 2:13.370 1 40.489
4 44 Kane, Natalie GBR MCUI KTM 27:57.855 11 1:19.136 1:09.937 2:17.127 1 39.38
5 32 Pettersson, Sara SWE SVEMO KTM 28:00.210 11 1:21.491 0:02.355 2:17.165 2 39.369
6 46 van der Wekken, Britt NED KNMV Honda 28:00.496 11 1:21.777 0:00.286 2:17.615 5 39.24
7 226 Östlund, Frida SWE SVEMO Honda 28:31.481 11 1:52.762 0:30.985 2:19.118 1 38.816
8 151 Klink, Nina NED KNMV KTM 28:36.749 11 1:58.030 0:05.268 2:21.724 3 38.102
9 149 Veenstra, Marianne NED KNMV KTM 28:38.317 11 1:59.598 0:01.568 2:20.429 8 38.454
10 88 Adriansson, Sandra SWE SVEMO Kawasaki 28:42.911 11 2:04.192 0:04.594 2:20.810 5 38.35
11 21 Irmgartz, Kim GER DMSB Suzuki 26:52.759 10 1 lap 1 lap 2:22.931 2 37.78
12 34 Dunlop, Alix GBR ACU Honda 27:02.903 10 1 lap 0:10.144 2:22.190 3 37.977
13 111 Borchers, Anne GER DMSB Suzuki 27:21.531 10 1 lap 0:18.628 2:24.160 4 37.458
14 193 Braam, Kimberley NED KNMV Kawasaki 27:24.583 10 1 lap 0:03.052 2:26.497 4 36.861
15 116 Nocera, Francesca ITA FMV KTM 27:26.421 10 1 lap 0:01.838 2:24.650 3 37.331
16 73 Pettersen, Marie S. NOR NMF unknown 27:26.441 10 1 lap 0:00.020 2:26.825 4 36.778
17 52 Charroux, Justine FRA FFM Yamaha 27:27.681 10 1 lap 0:01.240 2:25.082 6 37.22
18 110 van Oosanen, Kelly NED MUL Yamaha 27:29.934 10 1 lap 0:02.253 2:27.663 7 36.57
19 79 Seisdedos, Gabriela ESP RFME Kawasaki 27:42.460 10 1 lap 0:12.526 2:25.102 5 37.215
20 130 Joineau, Jessie FRA FFM Yamaha 27:43.205 10 1 lap 0:00.745 2:24.220 3 37.443
21 11 Goodlad, Amie GBR ACU Honda 27:45.968 10 1 lap 0:02.763 2:28.026 3 36.48
22 136 Dunlop, Billie GBR ACU Honda 27:47.037 10 1 lap 0:01.069 2:29.441 3 36.135
23 69 Stoutjesdijk, Stephanie NED KNMV KTM 27:55.277 10 1 lap 0:08.240 2:30.675 5 35.839
24 25 Guryeva, Ekaterina RUS MFR Kawasaki 28:12.198 10 1 lap 0:16.921 2:32.370 6 35.44
25 18 Germond, Virginie SUI FMS Suzuki 28:15.172 10 1 lap 0:02.974 2:32.114 5 35.5
26 36 de Barquin, Morane BEL FMB Honda 28:31.061 10 1 lap 0:15.889 2:30.276 3 35.934
27 266 Rasmussen, Catja DEN DMU Suzuki 28:34.562 10 1 lap 0:03.501 2:31.435 4 35.659
28 195 Josta, Samanta LAT LAMSF TM 28:49.662 10 1 lap 0:15.100 2:34.655 2 34.916
29 98 Schittenhelm, Selina GER DMSB KTM 28:57.578 10 1 lap 0:07.916 2:34.841 1 34.874
30 51 Marsh, Danni GBR ACU Honda 29:07.026 10 1 lap 0:09.448 2:34.438 2 34.965
31 22 Danz, Vanessa GER DMSB KTM 26:43.662 9 2 laps 1 lap 2:37.154 2 34.361
32 100 Lorca, Maria VEN FMV Suzuki 26:46.542 9 2 laps 0:02.880 2:31.603 1 35.619
33 95 Virtanen, Ria FIN SML KTM 26:53.491 9 2 laps 0:06.949 2:38.915 3 33.98
34 82 Corbel, Adeline FRA FFM Yamaha 27:11.572 9 2 laps 0:18.081 2:39.695 3 33.814
35 987 Lago, Erica ITA FMI Suzuki 28:14.660 9 2 laps 1:03.088 2:39.169 2 33.926
36 292 Fürbacherova, Kristijna CZE SMF Kawasaki 28:21.583 9 2 laps 0:06.923 2:38.780 2 34.009
37 93 Parrini, Floriana ITA FMI unknown 28:46.428 9 2 laps 0:24.845 2:31.363 1 35.676
38 20 Lukkari, Jutta FIN SML KTM 28:58.064 9 2 laps 0:11.636 2:42.700 4 33.19
39 12 Debelic, Snezana CRO HMS KTM 29:32.722 9 2 laps 0:34.658 2:51.443 1 31.497
40 19 Miller, Joanna POL PZM KTM 7:30.507 0 11 laps 9 laps 0:00.000 0 0

MX3 – Qualifying Group A – Classification
Pos Nr Rider Nat. Fed. Bike Bestlaptime in lap Diff. First Diff. Prev. Tot. Laps Speed

1 17 Söderström, Tom SWE SVEMO Honda 1:56.447 2 0:00.000 0:00.000 7 46.373
2 56 Klein Kromhof, Ceriel NED KNMV Honda 1:56.496 5 0:00.049 0:00.049 6 46.354
3 388 Söderberg, Ludvig FIN SML Honda 1:57.363 7 0:00.916 0:00.867 8 46.011
4 52 Walkner, Matthias AUT OeAMTC KTM 1:57.535 7 0:01.088 0:00.172 8 45.944
5 232 Michek, Martin CZE ACCR KTM 1:57.577 7 0:01.130 0:00.042 8 45.927
6 59 Van Daele, Marvin BEL FMB Kawasaki 1:58.298 7 0:01.851 0:00.721 8 45.647
7 171 Kovalainen, Marko FIN SML Yamaha 1:58.743 7 0:02.296 0:00.445 7 45.476
8 302 Mäkinen, Tommi FIN SML KTM 1:58.827 6 0:02.380 0:00.084 8 45.444
9 49 Schmidinger, Günter AUT OeAMTC Honda 1:58.927 8 0:02.480 0:00.100 8 45.406
10 942 Laansoo, Juss EST EMF KTM 1:59.580 3 0:03.133 0:00.653 6 45.158
11 75 Andersson, Mathias SWE SVEMO Yamaha 1:59.975 4 0:03.528 0:00.395 6 45.009
12 349 Hool, Michael NED KNMV TM 2:00.588 3 0:04.141 0:00.613 8 44.781
13 40 Foguenne, Eric BEL FMB Suzuki 2:00.821 8 0:04.374 0:00.233 8 44.694
14 23 Verstrepen, Stijn BEL FMB Honda 2:01.035 8 0:04.588 0:00.214 8 44.615
15 111 Bartos, Petr CZE ACCR KTM 2:01.336 7 0:04.889 0:00.301 7 44.505
16 7 Staufer, Michael AUT OeAMTC KTM 2:01.379 7 0:04.932 0:00.043 8 44.489
17 34 van den Sanden, Dimitri BEL FMB Honda 2:01.934 7 0:05.487 0:00.555 7 44.286
18 43 Klijn, Maurice NED KNMV Kawasaki 2:02.015 5 0:05.568 0:00.081 7 44.257
19 29 Nijs, Ricky BEL FMB Honda 2:02.469 7 0:06.022 0:00.454 7 44.093
20 74 Kaurit, Ardo EST EMF Yamaha 2:03.029 3 0:06.582 0:00.560 7 43.892
21 303 Mäkinen, Miika FIN SML KTM 2:03.539 6 0:07.092 0:00.510 6 43.711
22 38 Rouhiainen, Riku FIN SML Yamaha 2:03.641 7 0:07.194 0:00.102 7 43.675
23 131 Havam, Heido EST EMF KTM 2:05.086 5 0:08.639 0:01.445 8 43.17
24 888 Fontanesi, Luca ITA FMI Honda 2:07.063 6 0:10.616 0:01.977 6 42.499
25 19 Arana, Txomin ESP RFME Yamaha 2:08.012 2 0:11.565 0:00.949 7 42.184
26 200 Mercer, Philip GBR ACU KTM 2:08.154 4 0:11.707 0:00.142 4 42.137
27 182 Germond, Keoma SUI FMS Suzuki 2:10.157 2 0:13.710 0:02.003 5 41.488
28 168 Schuster, Erwin AUT OeAMTC Suzuki 2:13.833 2 0:17.386 0:03.676 4 40.349
29 128 Lewis, Phil GBR ACU KTM 2:23.993 6 0:27.546 0:10.160 7 37.502

MX3 – Qualifying Group B – Classification
Pos Nr Rider Nat. Fed. Bike Bestlaptime in lap Diff. First Diff. Prev. Tot. Laps Speed

1 41 Wouts, Kevin BEL DMSB Kawasaki 1:55.445 6 0:00.000 0:00.000 7 46.776
2 387 Martens, Yentel BEL MUL Kawasaki 1:56.252 3 0:00.807 0:00.807 6 46.451
3 213 Pyrhönen, Antti FIN SML unknown 1:56.840 5 0:01.395 0:00.588 8 46.217
4 144 Lindstrom, Kim SWE SVEMO Kawasaki 1:57.363 4 0:01.918 0:00.523 7 46.011
5 12 Law, Jamie GBR ACU KTM 1:57.711 3 0:02.266 0:00.348 7 45.875
6 62 Klemen, Gercar SLO AMZS Honda 1:58.211 4 0:02.766 0:00.500 7 45.681
7 262 Lonka, Lukasz POL PZM Honda 1:59.462 5 0:04.017 0:01.251 9 45.203
8 170 Macuks, Toms LAT LAMSF Suzuki 1:59.564 2 0:04.119 0:00.102 5 45.164
9 198 Bucas, Vytautas LTU LMSF Honda 1:59.723 6 0:04.278 0:00.159 7 45.104
10 116 Pashchynskyi, Mykola UKR FMU KTM 2:00.133 8 0:04.688 0:00.410 8 44.95
11 46 Sjöberg, Rasmus SWE SVEMO Honda 2:00.226 6 0:04.781 0:00.093 7 44.915
12 93 Blom, Stijn NED KNMV KTM 2:00.269 6 0:04.824 0:00.043 8 44.899
13 410 Mägi, Indrek EST EMF Kawasaki 2:00.555 3 0:05.110 0:00.286 7 44.793
14 277 Eriksson, Toni FIN SML KTM 2:00.669 4 0:05.224 0:00.114 8 44.751
15 348 Cros Cortes, Joan ESP RFME Suzuki 2:00.971 3 0:05.526 0:00.302 7 44.639
16 67 Michalec, Petr CZE ACCR Honda 2:03.312 6 0:07.867 0:02.341 7 43.791
17 88 Roncin, Pierrick FRA FFM Honda 2:03.414 2 0:07.969 0:00.102 7 43.755
18 27 Renkens, Jeremy BEL FMB Yamaha 2:03.782 4 0:08.337 0:00.368 8 43.625
19 50 Hofstede, Christian NED KNMV Honda 2:04.380 7 0:08.935 0:00.598 8 43.415
20 31 Bogh, Nick DEN DMU KTM 2:05.157 1 0:09.712 0:00.777 7 43.146
21 139 Engelen, Steven BEL FMB Yamaha 2:05.287 3 0:09.842 0:00.130 7 43.101
22 15 Esparis, Oscar VEN FMV Suzuki 2:05.498 2 0:10.053 0:00.211 2 43.029
23 53 Johnsson, Tom SWE SVEMO Suzuki 2:06.356 4 0:10.911 0:00.858 6 42.736
24 84 Brucart, Ramon ESP RFME Yamaha 2:07.075 8 0:11.630 0:00.719 8 42.495
25 224 Urbas, Theo SLO AMZS Kawasaki 2:07.185 4 0:11.740 0:00.110 8 42.458
26 71 Valente, Christopher SUI FMS KTM 2:08.139 3 0:12.694 0:00.954 7 42.142
27 259 Buso, Mattia ITA FMI KTM 2:08.402 6 0:12.957 0:00.263 6 42.055

(Photo : Youthstream)

A voir aussi :

Le commentaires sont fermés.